Time;durP1;ratioP1;P1;durP2;ratioP2;P2;SDS_P1;SDS_P2;PMS_P1;PMS_P2;Temp;Humidity;BMP_temperature;BMP_pressure;BME280_temperature;BME280_humidity;BME280_pressure;Samples;Min_cycle;Max_cycle;Signal;HPM_P1;HPM_P2
2021/04/20 00:03:24;;;;;;;;;;;5.80;99.90;;;;;;10322638;28;19969;-64
2021/04/20 00:08:25;;;;;;;;;;;5.70;99.90;;;;;;10320614;28;20327;-64
2021/04/20 00:13:26;;;;;;;;;;;5.40;99.90;;;;;;10321326;28;20016;-64
2021/04/20 00:18:28;;;;;;;;;;;5.40;99.90;;;;;;10338695;28;20305;-64
2021/04/20 00:23:29;;;;;;;;;;;5.40;99.90;;;;;;10326957;28;19928;-64
2021/04/20 00:28:31;;;;;;;;;;;5.40;99.90;;;;;;10318978;28;19926;-64
2021/04/20 00:33:32;;;;;;;;;;;5.20;99.90;;;;;;10333582;28;19976;-64
2021/04/20 00:38:36;;;;;;;;;;;5.30;99.90;;;;;;10398479;28;19982;-64
2021/04/20 00:43:40;;;;;;;;;;;5.30;99.90;;;;;;10333471;28;19923;-64
2021/04/20 00:48:41;;;;;;;;;;;5.20;99.90;;;;;;10319485;28;20412;-63
2021/04/20 00:53:45;;;;;;;;;;;5.30;99.90;;;;;;10338089;28;20325;-64
2021/04/20 00:58:46;;;;;;;;;;;5.20;99.90;;;;;;10305361;28;20017;-64
2021/04/20 01:03:47;;;;;;;;;;;5.10;99.90;;;;;;10373159;28;20378;-64
2021/04/20 01:08:49;;;;;;;;;;;5.00;99.90;;;;;;10317333;28;20025;-63
2021/04/20 01:13:50;;;;;;;;;;;5.00;99.90;;;;;;10318474;28;20020;-63
2021/04/20 01:18:52;;;;;;;;;;;4.70;99.90;;;;;;10318706;28;20016;-63
2021/04/20 01:24:09;;;;;;;;;;;4.50;99.90;;;;;;10324127;28;20354;-63
2021/04/20 01:29:11;;;;;;;;;;;4.60;99.90;;;;;;10317972;28;19953;-64
2021/04/20 01:34:13;;;;;;;;;;;4.60;99.90;;;;;;10319478;28;19972;-64
2021/04/20 01:39:15;;;;;;;;;;;4.60;99.90;;;;;;10317624;28;19930;-63
2021/04/20 01:44:16;;;;;;;;;;;4.60;99.90;;;;;;10345703;28;20014;-64
2021/04/20 01:49:17;;;;;;;;;;;4.50;99.90;;;;;;10317154;28;20437;-64
2021/04/20 01:54:19;;;;;;;;;;;4.50;99.90;;;;;;10319510;28;20024;-64
2021/04/20 01:59:21;;;;;;;;;;;4.40;99.90;;;;;;10317227;28;20016;-64
2021/04/20 02:04:22;;;;;;;;;;;4.40;99.90;;;;;;10364914;28;20445;-64
2021/04/20 02:09:24;;;;;;;;;;;4.30;99.90;;;;;;10323754;28;20310;-64
2021/04/20 02:14:25;;;;;;;;;;;4.20;99.90;;;;;;10384655;28;20022;-64
2021/04/20 02:19:27;;;;;;;;;;;4.20;99.90;;;;;;10326845;28;19996;-64
2021/04/20 02:24:28;;;;;;;;;;;4.20;99.90;;;;;;10325555;28;20356;-64
2021/04/20 02:29:30;;;;;;;;;;;4.20;99.90;;;;;;10323007;28;19968;-64
2021/04/20 02:34:31;;;;;;;;;;;4.00;99.90;;;;;;10471146;28;20017;-64
2021/04/20 02:39:32;;;;;;;;;;;3.90;99.90;;;;;;10322498;28;19976;-63
2021/04/20 02:44:34;;;;;;;;;;;4.00;99.90;;;;;;10330061;28;19933;-64
2021/04/20 02:49:36;;;;;;;;;;;3.90;99.90;;;;;;10358202;28;20015;-64
2021/04/20 02:54:45;;;;;;;;;;;3.90;99.90;;;;;;10474097;28;20379;-64
2021/04/20 02:59:47;;;;;;;;;;;3.80;99.90;;;;;;10346406;28;20031;-64
2021/04/20 03:04:50;;;;;;;;;;;3.80;99.90;;;;;;10318407;28;20361;-63
2021/04/20 03:09:51;;;;;;;;;;;3.80;99.90;;;;;;10362488;28;19931;-64
2021/04/20 03:14:53;;;;;;;;;;;3.70;99.90;;;;;;10359445;28;19933;-64
2021/04/20 03:19:56;;;;;;;;;;;3.60;99.90;;;;;;10361670;28;19924;-63
2021/04/20 03:25:03;;;;;;;;;;;3.50;99.90;;;;;;10336732;28;20372;-64
2021/04/20 03:30:05;;;;;;;;;;;3.50;99.90;;;;;;10324105;28;19961;-64
2021/04/20 03:35:27;;;;;;;;;;;3.40;99.90;;;;;;10321823;28;20382;-64
2021/04/20 03:40:31;;;;;;;;;;;3.40;99.90;;;;;;10324854;28;20026;-63
2021/04/20 03:45:36;;;;;;;;;;;3.30;99.90;;;;;;10320879;28;20025;-63
2021/04/20 03:50:39;;;;;;;;;;;3.30;99.90;;;;;;10323397;28;19934;-63
2021/04/20 03:55:41;;;;;;;;;;;3.30;99.90;;;;;;10320635;28;20391;-64
2021/04/20 04:00:43;;;;;;;;;;;3.30;99.90;;;;;;10328672;28;19932;-63
2021/04/20 04:05:47;;;;;;;;;;;3.20;99.90;;;;;;10320740;28;20029;-63
2021/04/20 04:10:51;;;;;;;;;;;3.20;99.90;;;;;;10359294;28;19926;-64
2021/04/20 04:16:01;;;;;;;;;;;3.10;99.90;;;;;;10321086;28;19984;-64
2021/04/20 04:21:04;;;;;;;;;;;3.10;99.90;;;;;;10290734;28;19975;-64
2021/04/20 04:26:10;;;;;;;;;;;3.10;99.90;;;;;;10328650;28;20024;-64
2021/04/20 04:31:13;;;;;;;;;;;3.00;99.90;;;;;;10320099;28;19936;-64
2021/04/20 04:36:15;;;;;;;;;;;2.90;99.90;;;;;;10358343;28;20452;-64
2021/04/20 04:41:17;;;;;;;;;;;2.80;99.90;;;;;;10319731;28;20021;-63
2021/04/20 04:46:20;;;;;;;;;;;2.80;99.90;;;;;;10320982;28;20008;-63
2021/04/20 04:51:21;;;;;;;;;;;2.90;99.90;;;;;;10319320;28;19926;-64
2021/04/20 04:56:23;;;;;;;;;;;2.90;99.90;;;;;;10321095;28;20012;-64
2021/04/20 05:01:25;;;;;;;;;;;3.10;99.90;;;;;;10326119;28;19971;-63
2021/04/20 05:06:27;;;;;;;;;;;3.40;99.90;;;;;;10362589;28;19983;-64
2021/04/20 05:11:28;;;;;;;;;;;3.50;99.90;;;;;;10323974;28;19975;-64
2021/04/20 05:16:29;;;;;;;;;;;3.40;99.90;;;;;;10334583;28;19973;-64
2021/04/20 05:21:31;;;;;;;;;;;3.30;99.90;;;;;;10320783;28;19930;-63
2021/04/20 05:26:33;;;;;;;;;;;3.40;99.90;;;;;;10317961;28;20012;-64
2021/04/20 05:31:34;;;;;;;;;;;3.60;99.90;;;;;;10323786;28;20016;-64
2021/04/20 05:36:36;;;;;;;;;;;4.00;99.90;;;;;;10318431;28;19926;-64
2021/04/20 05:41:38;;;;;;;;;;;4.30;99.90;;;;;;10321028;28;19926;-64
2021/04/20 05:46:41;;;;;;;;;;;4.40;99.90;;;;;;10316796;28;19957;-64
2021/04/20 05:51:42;;;;;;;;;;;4.50;99.90;;;;;;10319309;28;20116;-63
2021/04/20 05:56:44;;;;;;;;;;;4.70;99.90;;;;;;10317793;28;20024;-63
2021/04/20 06:01:45;;;;;;;;;;;4.90;99.90;;;;;;10371097;28;19963;-63
2021/04/20 06:06:47;;;;;;;;;;;5.00;99.90;;;;;;10464271;28;19973;-64
2021/04/20 06:11:48;;;;;;;;;;;5.00;99.90;;;;;;10321527;28;20025;-63
2021/04/20 06:16:49;;;;;;;;;;;5.20;99.90;;;;;;10316636;28;20013;-64
2021/04/20 06:21:51;;;;;;;;;;;5.20;99.90;;;;;;10318243;28;20270;-64
2021/04/20 06:26:52;;;;;;;;;;;5.40;99.90;;;;;;10310219;28;19969;-63
2021/04/20 06:31:54;;;;;;;;;;;5.50;99.90;;;;;;10308832;28;19925;-63
2021/04/20 06:36:56;;;;;;;;;;;5.80;99.90;;;;;;10292152;28;19980;-64
2021/04/20 06:41:58;;;;;;;;;;;6.00;99.90;;;;;;10326343;28;19929;-64
2021/04/20 06:47:04;;;;;;;;;;;6.00;99.90;;;;;;10326506;28;19943;-64
2021/04/20 06:52:07;;;;;;;;;;;6.10;99.90;;;;;;10352614;28;19933;-64
2021/04/20 06:57:11;;;;;;;;;;;6.30;99.90;;;;;;10327080;28;20030;-63
2021/04/20 07:02:13;;;;;;;;;;;6.50;99.90;;;;;;10333549;28;20232;-64
2021/04/20 07:07:26;;;;;;;;;;;6.60;99.90;;;;;;10404819;28;19986;-63
2021/04/20 07:12:28;;;;;;;;;;;6.70;99.90;;;;;;10435634;28;20018;-63
2021/04/20 07:17:38;;;;;;;;;;;7.10;99.90;;;;;;10385089;28;19980;-64
2021/04/20 07:22:51;;;;;;;;;;;7.20;99.90;;;;;;10387155;28;20501;-64
2021/04/20 07:27:55;;;;;;;;;;;7.30;99.90;;;;;;10305396;28;20016;-64
2021/04/20 07:32:59;;;;;;;;;;;7.40;99.90;;;;;;10330533;28;19979;-64
2021/04/20 07:38:05;;;;;;;;;;;7.50;99.90;;;;;;10320218;28;19926;-63
2021/04/20 07:43:25;;;;;;;;;;;8.00;99.90;;;;;;10373906;28;19976;-64
2021/04/20 07:48:39;;;;;;;;;;;8.60;99.90;;;;;;10319020;28;20017;-65
2021/04/20 07:53:55;;;;;;;;;;;9.20;99.90;;;;;;10336314;28;19931;-65
2021/04/20 07:58:58;;;;;;;;;;;10.20;99.90;;;;;;10327269;28;19930;-64
2021/04/20 08:04:10;;;;;;;;;;;10.70;99.90;;;;;;10342721;28;19932;-64
2021/04/20 08:09:17;;;;;;;;;;;11.30;99.90;;;;;;10319003;28;20012;-64
2021/04/20 08:14:25;;;;;;;;;;;11.60;99.90;;;;;;10319777;28;20003;-64
2021/04/20 08:19:34;;;;;;;;;;;11.80;99.90;;;;;;10287575;28;20503;-61
2021/04/20 08:24:49;;;;;;;;;;;12.00;99.90;;;;;;10411175;28;19928;-61
2021/04/20 08:29:52;;;;;;;;;;;12.20;99.90;;;;;;10298535;28;19978;-61
2021/04/20 08:35:01;;;;;;;;;;;12.10;99.80;;;;;;10300535;28;19926;-60
2021/04/20 08:40:15;;;;;;;;;;;12.50;99.90;;;;;;10322044;28;19930;-61
2021/04/20 08:45:35;;;;;;;;;;;12.80;97.10;;;;;;10316503;28;19929;-61
2021/04/20 08:50:39;;;;;;;;;;;13.00;96.50;;;;;;10331618;28;19977;-61
2021/04/20 08:56:00;;;;;;;;;;;13.20;95.80;;;;;;10318541;28;20393;-60
2021/04/20 09:01:08;;;;;;;;;;;13.50;92.30;;;;;;10318464;28;20133;-61
2021/04/20 09:06:10;;;;;;;;;;;14.00;90.50;;;;;;10318699;28;19926;-61
2021/04/20 09:11:11;;;;;;;;;;;14.00;83.70;;;;;;10323744;28;20358;-61
2021/04/20 09:16:13;;;;;;;;;;;14.20;85.50;;;;;;10469871;28;20107;-61
2021/04/20 09:21:19;;;;;;;;;;;14.40;74.50;;;;;;10318480;28;19936;-61
2021/04/20 09:26:33;;;;;;;;;;;14.60;72.90;;;;;;10318488;28;20031;-61
2021/04/20 09:31:36;;;;;;;;;;;14.80;70.20;;;;;;10370907;28;19974;-61
2021/04/20 09:36:39;;;;;;;;;;;14.90;66.00;;;;;;10404252;28;20036;-61
2021/04/20 09:41:43;;;;;;;;;;;15.00;65.10;;;;;;10318764;28;20325;-61
2021/04/20 09:46:47;;;;;;;;;;;15.00;63.50;;;;;;10317205;28;19926;-61
2021/04/20 09:51:58;;;;;;;;;;;15.40;60.30;;;;;;10376221;28;19931;-59
2021/04/20 09:57:02;;;;;;;;;;;15.30;58.70;;;;;;10407267;28;19969;-59
2021/04/20 10:02:28;;;;;;;;;;;15.50;57.70;;;;;;10315588;28;20308;-59
2021/04/20 10:07:49;;;;;;;;;;;15.50;55.70;;;;;;10328898;28;19929;-59
2021/04/20 10:13:05;;;;;;;;;;;15.50;55.50;;;;;;10317836;28;20477;-59
2021/04/20 10:18:26;;;;;;;;;;;15.40;55.80;;;;;;10320339;28;19981;-59
2021/04/20 10:23:46;;;;;;;;;;;15.90;54.10;;;;;;10319677;28;19972;-59
2021/04/20 10:28:56;;;;;;;;;;;15.80;54.10;;;;;;10317731;28;19930;-59
2021/04/20 10:33:58;;;;;;;;;;;15.80;54.10;;;;;;10320410;28;20012;-59
2021/04/20 10:39:06;;;;;;;;;;;15.90;55.20;;;;;;10324760;28;19942;-59
2021/04/20 10:44:11;;;;;;;;;;;15.70;50.10;;;;;;10352147;28;20007;-59
2021/04/20 10:49:17;;;;;;;;;;;15.50;49.30;;;;;;10535243;28;19968;-59
2021/04/20 10:54:19;;;;;;;;;;;15.30;49.40;;;;;;10529408;28;20038;-59
2021/04/20 10:59:25;;;;;;;;;;;15.30;51.20;;;;;;10460589;28;19925;-59
2021/04/20 11:04:29;;;;;;;;;;;15.60;49.70;;;;;;10363268;28;19942;-59
2021/04/20 11:09:34;;;;;;;;;;;15.30;49.20;;;;;;10536487;28;19938;-59
2021/04/20 11:14:36;;;;;;;;;;;15.40;50.40;;;;;;10490907;28;20458;-59
2021/04/20 11:19:42;;;;;;;;;;;15.50;51.00;;;;;;10322988;28;19929;-59
2021/04/20 11:24:45;;;;;;;;;;;15.60;49.10;;;;;;10370168;28;20433;-59
2021/04/20 11:29:56;;;;;;;;;;;15.60;49.70;;;;;;10322789;28;20013;-59
2021/04/20 11:35:04;;;;;;;;;;;15.50;49.50;;;;;;10323332;28;20030;-59
2021/04/20 11:40:07;;;;;;;;;;;15.70;48.30;;;;;;10323194;28;20021;-59
2021/04/20 11:45:13;;;;;;;;;;;15.70;47.80;;;;;;10372015;28;20451;-59
2021/04/20 11:50:15;;;;;;;;;;;16.10;48.90;;;;;;10436220;28;20021;-59
2021/04/20 11:55:17;;;;;;;;;;;16.30;48.00;;;;;;10381056;28;20427;-59
2021/04/20 12:00:19;;;;;;;;;;;16.40;47.10;;;;;;10533651;28;20010;-59
2021/04/20 12:05:20;;;;;;;;;;;16.30;47.30;;;;;;10531536;28;20003;-59
2021/04/20 12:10:22;;;;;;;;;;;16.00;46.80;;;;;;10534505;28;19924;-61
2021/04/20 12:15:23;;;;;;;;;;;16.20;46.20;;;;;;10526103;28;19959;-61
2021/04/20 12:20:29;;;;;;;;;;;16.40;47.70;;;;;;10530865;28;19930;-61
2021/04/20 12:25:31;;;;;;;;;;;16.60;45.60;;;;;;10479423;28;20010;-61
2021/04/20 12:30:32;;;;;;;;;;;16.90;44.80;;;;;;10533201;28;19986;-61
2021/04/20 12:35:34;;;;;;;;;;;17.00;45.30;;;;;;10523622;28;20018;-61
2021/04/20 12:40:36;;;;;;;;;;;16.90;43.30;;;;;;10319672;28;19933;-61
2021/04/20 12:45:38;;;;;;;;;;;17.20;42.60;;;;;;10326518;28;20020;-61
2021/04/20 12:50:41;;;;;;;;;;;17.40;42.40;;;;;;10531465;28;19924;-62
2021/04/20 12:55:43;;;;;;;;;;;17.70;42.20;;;;;;10526419;28;19947;-61
2021/04/20 13:00:44;;;;;;;;;;;17.80;42.30;;;;;;10319080;28;20020;-61
2021/04/20 13:05:46;;;;;;;;;;;17.60;42.90;;;;;;10322260;28;20187;-61
2021/04/20 13:10:57;;;;;;;;;;;17.50;42.80;;;;;;10531807;28;19938;-61
2021/04/20 13:16:00;;;;;;;;;;;17.30;44.10;;;;;;10518983;28;19925;-61
2021/04/20 13:21:02;;;;;;;;;;;17.40;42.80;;;;;;10320030;28;19929;-61
2021/04/20 13:26:21;;;;;;;;;;;17.00;43.40;;;;;;10321431;28;20012;-61
2021/04/20 13:31:24;;;;;;;;;;;16.60;43.00;;;;;;10318200;28;19933;-61
2021/04/20 13:36:26;;;;;;;;;;;16.40;45.00;;;;;;10341236;28;19960;-61
2021/04/20 13:41:29;;;;;;;;;;;16.40;45.20;;;;;;10529918;28;19928;-61
2021/04/20 13:46:32;;;;;;;;;;;16.40;44.70;;;;;;10522447;28;19931;-61
2021/04/20 13:51:35;;;;;;;;;;;16.90;43.60;;;;;;10463264;28;20000;-61
2021/04/20 13:56:40;;;;;;;;;;;17.20;42.10;;;;;;10345857;28;19946;-61
2021/04/20 14:01:44;;;;;;;;;;;16.70;44.30;;;;;;10529657;28;19928;-61
2021/04/20 14:06:48;;;;;;;;;;;16.70;44.60;;;;;;10496044;28;19926;-61
2021/04/20 14:11:54;;;;;;;;;;;17.10;43.90;;;;;;10315570;28;20016;-61
2021/04/20 14:16:57;;;;;;;;;;;17.10;42.70;;;;;;10356244;28;20018;-61
2021/04/20 14:22:00;;;;;;;;;;;16.90;43.20;;;;;;10323605;28;19933;-61
2021/04/20 14:27:06;;;;;;;;;;;16.70;42.90;;;;;;10315836;28;19926;-61
2021/04/20 14:32:09;;;;;;;;;;;17.00;44.00;;;;;;10317328;28;20028;-61
2021/04/20 14:37:11;;;;;;;;;;;17.40;43.90;;;;;;10317538;28;19926;-61
2021/04/20 14:42:13;;;;;;;;;;;17.70;43.90;;;;;;10522033;28;20022;-61
2021/04/20 14:47:20;;;;;;;;;;;17.80;43.60;;;;;;10528789;28;19924;-61
2021/04/20 14:52:22;;;;;;;;;;;18.00;43.40;;;;;;10318839;28;20020;-61
2021/04/20 14:57:33;;;;;;;;;;;17.80;43.50;;;;;;10316991;28;19998;-61
2021/04/20 15:02:35;;;;;;;;;;;18.00;43.10;;;;;;10318474;28;20008;-61
2021/04/20 15:07:45;;;;;;;;;;;18.00;42.70;;;;;;10318479;28;20435;-61
2021/04/20 15:12:53;;;;;;;;;;;17.60;43.20;;;;;;10334093;28;19966;-61
2021/04/20 15:17:59;;;;;;;;;;;17.10;43.40;;;;;;10513807;28;20430;-61
2021/04/20 15:23:03;;;;;;;;;;;16.60;44.70;;;;;;10322218;28;20012;-61
2021/04/20 15:28:10;;;;;;;;;;;16.30;45.00;;;;;;10323760;28;20071;-61
2021/04/20 15:33:22;;;;;;;;;;;16.30;45.10;;;;;;10322419;28;19973;-61
2021/04/20 15:38:25;;;;;;;;;;;16.10;45.20;;;;;;10354925;28;20026;-61
2021/04/20 15:43:27;;;;;;;;;;;15.80;45.60;;;;;;10535616;28;19928;-61
2021/04/20 15:48:30;;;;;;;;;;;15.80;46.50;;;;;;10498977;28;19968;-61
2021/04/20 15:53:34;;;;;;;;;;;16.20;45.70;;;;;;10322243;28;20013;-61
2021/04/20 15:58:40;;;;;;;;;;;16.60;45.70;;;;;;10421815;28;20391;-61
2021/04/20 16:03:43;;;;;;;;;;;16.70;45.00;;;;;;10526266;28;20378;-61
2021/04/20 16:08:45;;;;;;;;;;;16.80;44.50;;;;;;10533940;28;20002;-61
2021/04/20 16:13:49;;;;;;;;;;;16.90;45.10;;;;;;10525823;28;19937;-61
2021/04/20 16:18:52;;;;;;;;;;;16.80;44.30;;;;;;10532465;28;19950;-61
2021/04/20 16:23:53;;;;;;;;;;;17.00;44.30;;;;;;10514956;28;20024;-61
2021/04/20 16:28:56;;;;;;;;;;;16.90;43.80;;;;;;10323189;28;20036;-61
2021/04/20 16:33:58;;;;;;;;;;;16.90;44.20;;;;;;10320449;28;20016;-61
2021/04/20 16:38:59;;;;;;;;;;;17.00;43.20;;;;;;10328346;28;20025;-61
2021/04/20 16:44:03;;;;;;;;;;;17.10;44.20;;;;;;10320205;28;20457;-61
2021/04/20 16:49:10;;;;;;;;;;;17.20;44.60;;;;;;10420823;28;20019;-61
2021/04/20 16:54:11;;;;;;;;;;;17.30;43.60;;;;;;10532227;28;19931;-61
2021/04/20 16:59:18;;;;;;;;;;;17.00;43.00;;;;;;10425184;28;20301;-61
2021/04/20 17:04:45;;;;;;;;;;;16.90;43.10;;;;;;10320014;28;19929;-61
2021/04/20 17:09:56;;;;;;;;;;;16.60;43.40;;;;;;10447059;28;20392;-61
2021/04/20 17:15:06;;;;;;;;;;;16.50;44.30;;;;;;10530687;28;19971;-61
2021/04/20 17:20:26;;;;;;;;;;;16.60;45.20;;;;;;10523857;28;20023;-61
2021/04/20 17:25:48;;;;;;;;;;;16.60;44.20;;;;;;10335325;28;19936;-61
2021/04/20 17:30:59;;;;;;;;;;;16.40;44.80;;;;;;10320430;28;19926;-61
2021/04/20 17:36:06;;;;;;;;;;;16.20;45.50;;;;;;10319565;28;19933;-61
2021/04/20 17:41:10;;;;;;;;;;;16.10;45.70;;;;;;10485688;28;20512;-61
2021/04/20 17:46:23;;;;;;;;;;;16.00;45.50;;;;;;10489934;28;20028;-61
2021/04/20 17:51:56;;;;;;;;;;;15.70;46.10;;;;;;10318795;28;19942;-61
2021/04/20 17:57:06;;;;;;;;;;;15.50;47.10;;;;;;10287594;28;19929;-60
2021/04/20 18:02:26;;;;;;;;;;;15.40;47.80;;;;;;10321220;28;20334;-61
2021/04/20 18:07:39;;;;;;;;;;;15.20;48.80;;;;;;10372864;28;19983;-61
2021/04/20 18:12:40;;;;;;;;;;;15.00;49.60;;;;;;10351887;28;20020;-61
2021/04/20 18:17:41;;;;;;;;;;;14.70;49.80;;;;;;10393121;28;19972;-61
2021/04/20 18:23:04;;;;;;;;;;;14.50;50.50;;;;;;10313761;28;20037;-61
2021/04/20 18:28:12;;;;;;;;;;;14.20;51.50;;;;;;10417988;28;19924;-61
2021/04/20 18:33:18;;;;;;;;;;;14.00;52.10;;;;;;10354997;28;20020;-61
2021/04/20 18:38:24;;;;;;;;;;;13.80;52.80;;;;;;10447267;28;19930;-61
2021/04/20 18:43:44;;;;;;;;;;;13.60;52.60;;;;;;10527197;28;20023;-61
2021/04/20 18:48:59;;;;;;;;;;;13.50;53.40;;;;;;10483999;28;19924;-61
2021/04/20 18:54:25;;;;;;;;;;;13.20;54.60;;;;;;10526651;28;20011;-61
2021/04/20 18:59:35;;;;;;;;;;;13.00;55.60;;;;;;10370743;28;19932;-61
2021/04/20 19:04:55;;;;;;;;;;;12.80;57.60;;;;;;10327301;28;20469;-61
2021/04/20 19:10:00;;;;;;;;;;;12.60;57.40;;;;;;10497143;28;19975;-61
2021/04/20 19:15:17;;;;;;;;;;;12.40;58.00;;;;;;10321768;28;20005;-61
2021/04/20 19:20:18;;;;;;;;;;;12.20;58.80;;;;;;10363719;28;20015;-61
2021/04/20 19:25:22;;;;;;;;;;;12.10;59.50;;;;;;10353641;28;20351;-61
2021/04/20 19:30:24;;;;;;;;;;;12.00;60.40;;;;;;10420773;28;19928;-61
2021/04/20 19:35:36;;;;;;;;;;;11.80;61.20;;;;;;10441044;28;19977;-61
2021/04/20 19:40:49;;;;;;;;;;;11.70;62.20;;;;;;10325248;28;20379;-61
2021/04/20 19:46:02;;;;;;;;;;;11.50;63.70;;;;;;10321312;28;20025;-61
2021/04/20 19:51:07;;;;;;;;;;;11.30;64.30;;;;;;10289813;28;20425;-61
2021/04/20 19:56:11;;;;;;;;;;;10.80;70.40;;;;;;10320742;28;20036;-61
2021/04/20 20:01:12;;;;;;;;;;;10.70;74.40;;;;;;10351670;28;19954;-61
2021/04/20 20:06:19;;;;;;;;;;;10.70;77.30;;;;;;10531481;28;19934;-60
2021/04/20 20:11:37;;;;;;;;;;;10.60;81.40;;;;;;10503533;28;20043;-61
2021/04/20 20:16:40;;;;;;;;;;;10.60;84.50;;;;;;10319299;28;19926;-61
2021/04/20 20:21:43;;;;;;;;;;;10.60;87.40;;;;;;10364411;28;19924;-61
2021/04/20 20:26:49;;;;;;;;;;;10.50;90.20;;;;;;10445452;28;20344;-61
2021/04/20 20:31:56;;;;;;;;;;;10.30;91.70;;;;;;10368909;28;20431;-61
2021/04/20 20:37:04;;;;;;;;;;;10.10;93.00;;;;;;10523922;28;19932;-61
2021/04/20 20:42:06;;;;;;;;;;;10.00;93.40;;;;;;10529685;28;19977;-60
2021/04/20 20:47:09;;;;;;;;;;;9.80;95.70;;;;;;10523532;28;20158;-61
2021/04/20 20:52:15;;;;;;;;;;;9.70;97.30;;;;;;10531408;28;20372;-61
2021/04/20 20:57:30;;;;;;;;;;;9.50;98.20;;;;;;10495862;28;19930;-61
2021/04/20 21:02:32;;;;;;;;;;;9.50;99.90;;;;;;10320529;28;20270;-60
2021/04/20 21:07:36;;;;;;;;;;;9.40;99.90;;;;;;10371655;28;20034;-60
2021/04/20 21:12:44;;;;;;;;;;;9.40;99.90;;;;;;10531438;28;19924;-60
2021/04/20 21:17:49;;;;;;;;;;;9.20;99.90;;;;;;10470336;28;20382;-61
2021/04/20 21:22:53;;;;;;;;;;;9.00;99.90;;;;;;10319964;28;20001;-61
2021/04/20 21:27:54;;;;;;;;;;;8.90;99.90;;;;;;10319302;28;19930;-61
2021/04/20 21:32:56;;;;;;;;;;;8.90;99.90;;;;;;10316927;28;20302;-64
2021/04/20 21:38:09;;;;;;;;;;;9.00;99.90;;;;;;10362874;28;19929;-65
2021/04/20 21:43:11;;;;;;;;;;;8.90;99.90;;;;;;10317831;28;19929;-65
2021/04/20 21:48:15;;;;;;;;;;;8.80;99.90;;;;;;10443176;28;20007;-65
2021/04/20 21:53:26;;;;;;;;;;;8.60;99.90;;;;;;10357115;28;20011;-64
2021/04/20 21:58:28;;;;;;;;;;;8.50;99.90;;;;;;10312624;28;19979;-64
2021/04/20 22:03:31;;;;;;;;;;;8.40;99.90;;;;;;10307694;28;20354;-65
2021/04/20 22:08:57;;;;;;;;;;;8.30;99.90;;;;;;10315837;28;19926;-65
2021/04/20 22:14:00;;;;;;;;;;;8.10;99.90;;;;;;10342149;28;19977;-64
2021/04/20 22:19:07;;;;;;;;;;;8.10;99.90;;;;;;10319075;28;19926;-65
2021/04/20 22:24:11;;;;;;;;;;;8.10;99.90;;;;;;10316753;28;20326;-66
2021/04/20 22:29:13;;;;;;;;;;;8.10;99.90;;;;;;10317517;28;19957;-64
2021/04/20 22:34:41;;;;;;;;;;;7.90;99.90;;;;;;10325197;28;20167;-65
2021/04/20 22:39:45;;;;;;;;;;;7.90;99.90;;;;;;10357737;28;19931;-65
2021/04/20 22:44:48;;;;;;;;;;;7.80;99.90;;;;;;10361602;28;19979;-64
2021/04/20 22:49:52;;;;;;;;;;;7.80;99.90;;;;;;10466191;28;20394;-64
2021/04/20 22:54:57;;;;;;;;;;;7.60;99.90;;;;;;10322708;28;20016;-64
2021/04/20 23:00:24;;;;;;;;;;;7.50;99.90;;;;;;10322647;28;20369;-65
2021/04/20 23:05:28;;;;;;;;;;;7.50;99.90;;;;;;10335768;28;19926;-64
2021/04/20 23:10:30;;;;;;;;;;;7.40;99.90;;;;;;10339199;28;20024;-65
2021/04/20 23:15:32;;;;;;;;;;;7.30;99.90;;;;;;10403468;28;19982;-65
2021/04/20 23:20:33;;;;;;;;;;;7.30;99.90;;;;;;10322937;28;19973;-65
2021/04/20 23:25:52;;;;;;;;;;;7.30;99.90;;;;;;10322267;28;20021;-65
2021/04/20 23:30:56;;;;;;;;;;;7.30;99.90;;;;;;10372511;28;20026;-65
2021/04/20 23:35:59;;;;;;;;;;;7.30;99.90;;;;;;10379793;28;19972;-65
2021/04/20 23:41:03;;;;;;;;;;;7.30;99.90;;;;;;10321956;28;20017;-65
2021/04/20 23:46:04;;;;;;;;;;;7.10;99.90;;;;;;10321963;28;20360;-65
2021/04/20 23:51:06;;;;;;;;;;;6.90;99.90;;;;;;10453132;28;19924;-65
2021/04/20 23:56:08;;;;;;;;;;;6.90;99.90;;;;;;10315930;28;19969;-65
